Time;durP1;ratioP1;P1;durP2;ratioP2;P2;SDS_P1;SDS_P2;PMS_P1;PMS_P2;Temp;Humidity;BMP_temperature;BMP_pressure;BME280_temperature;BME280_humidity;BME280_pressure;Samples;Min_cycle;Max_cycle;Signal;HPM_P1;HPM_P2
2023/07/06 00:01:36;;;;;;;;;;;21.60;53.80;;;21.85;36.38;98791.56;4984984;28;113108;-76
2023/07/06 00:04:03;;;;;;;;;;;21.60;53.80;;;21.87;36.41;98796.78;4988391;28;124860;-76
2023/07/06 00:06:36;;;;;;;;;;;21.60;53.90;;;21.87;36.28;98797.63;4988198;28;124327;-76
2023/07/06 00:09:07;;;;;;;;;;;21.60;54.60;;;21.86;36.42;98787.53;4981221;28;115973;-78
2023/07/06 00:11:38;;;;;;;;;;;21.60;53.90;;;21.84;36.55;98789.94;4983146;28;114567;-77
2023/07/06 00:14:08;;;;;;;;;;;21.60;53.90;;;21.82;36.04;98786.72;4981527;28;124473;-77
2023/07/06 00:16:35;;;;;;;;;;;21.50;53.80;;;21.80;36.20;98784.28;4981107;28;124129;-76
2023/07/06 00:19:01;;;;;;;;;;;21.50;53.80;;;21.79;36.30;98784.69;4971907;28;113677;-76
2023/07/06 00:21:31;;;;;;;;;;;21.50;53.80;;;21.80;36.08;98787.09;4975805;28;115268;-76
2023/07/06 00:23:58;;;;;;;;;;;21.50;54.00;;;21.81;36.46;98787.91;4980901;28;124384;-77
2023/07/06 00:26:24;;;;;;;;;;;21.50;54.00;;;21.80;36.28;98792.72;4984685;28;124777;-77
2023/07/06 00:28:50;;;;;;;;;;;21.50;54.00;;;21.79;36.12;98784.69;4985840;28;114318;-78
2023/07/06 00:31:32;;;;;;;;;;;21.50;54.00;;;21.80;36.19;98794.72;4985331;28;113615;-78
2023/07/06 00:34:05;;;;;;;;;;;21.50;54.10;;;21.79;36.46;98795.94;4980315;28;124927;-75
2023/07/06 00:36:32;;;;;;;;;;;21.50;54.20;;;21.79;36.19;98793.13;4972516;28;123535;-75
2023/07/06 00:39:02;;;;;;;;;;;21.50;54.30;;;21.78;36.40;98789.47;4982780;28;114465;-75
2023/07/06 00:41:31;;;;;;;;;;;21.50;54.30;;;21.77;36.40;98799.13;4977281;28;113797;-75
2023/07/06 00:44:01;;;;;;;;;;;21.50;54.40;;;21.75;36.41;98792.28;4991356;28;124594;-75
2023/07/06 00:46:33;;;;;;;;;;;21.50;54.30;;;21.75;36.40;98795.88;4990620;28;124535;-75
2023/07/06 00:49:00;;;;;;;;;;;21.50;54.40;;;21.75;36.38;98795.09;4990090;28;114378;-76
2023/07/06 00:51:37;;;;;;;;;;;21.40;54.40;;;21.74;36.46;98793.47;4990070;28;113545;-77
2023/07/06 00:54:12;;;;;;;;;;;21.50;54.50;;;21.71;36.84;98800.69;4989069;28;124190;-76
2023/07/06 00:56:41;;;;;;;;;;;21.40;54.50;;;21.71;36.36;98799.84;4988965;28;123008;-76
2023/07/06 00:59:11;;;;;;;;;;;21.40;54.40;;;21.69;36.42;98802.28;4978281;28;115803;-78
2023/07/06 01:01:41;;;;;;;;;;;21.40;54.40;;;21.70;36.80;98789.81;4982325;28;114689;-76
2023/07/06 01:04:11;;;;;;;;;;;21.40;54.40;;;21.69;36.65;98791.03;4990888;28;124375;-76
2023/07/06 01:06:46;;;;;;;;;;;21.40;54.50;;;21.69;36.49;98799.47;4986630;28;124525;-77
2023/07/06 01:09:12;;;;;;;;;;;21.40;54.50;;;21.68;36.86;98789.38;4994572;28;114726;-76
2023/07/06 01:11:41;;;;;;;;;;;21.40;54.60;;;21.68;36.89;98790.22;4988971;28;113865;-78
2023/07/06 01:14:12;;;;;;;;;;;21.40;54.60;;;21.64;36.57;98794.97;4987663;28;124369;-78
2023/07/06 01:16:49;;;;;;;;;;;21.40;54.60;;;21.58;36.64;98799.34;4991196;28;124055;-77
2023/07/06 01:19:43;;;;;;;;;;;21.30;54.60;;;21.53;36.96;98794.06;4991142;28;114100;-79
2023/07/06 01:22:22;;;;;;;;;;;21.30;54.70;;;21.47;36.96;98793.63;4988495;28;114372;-76
2023/07/06 01:25:34;;;;;;;;;;;21.30;54.70;;;21.38;37.06;98782.66;4976747;28;124990;-77
2023/07/06 01:28:15;;;;;;;;;;;21.20;54.80;;;21.38;37.26;98782.66;4991020;28;124060;-75
2023/07/06 01:30:56;;;;;;;;;;;21.20;55.00;;;21.37;37.22;98777.41;4987789;28;114934;-77
2023/07/06 01:33:35;;;;;;;;;;;21.20;55.00;;;21.36;37.55;98785.03;4982572;28;113661;-80
2023/07/06 01:36:13;;;;;;;;;;;21.10;55.00;;;21.37;37.20;98774.59;4980293;28;124827;-76
2023/07/06 01:38:39;;;;;;;;;;;21.10;55.10;;;21.37;37.18;98780.22;4989420;28;123700;-76
2023/07/06 01:41:06;;;;;;;;;;;21.10;55.00;;;21.35;37.30;98776.97;4990597;28;114702;-77
2023/07/06 01:43:32;;;;;;;;;;;21.10;55.10;;;21.32;37.49;98766.50;4988423;28;113687;-76
2023/07/06 01:45:59;;;;;;;;;;;21.10;55.20;;;21.27;37.32;98770.47;4983133;28;123480;-77
2023/07/06 01:48:26;;;;;;;;;;;21.10;55.20;;;21.24;37.33;98767.63;4988452;28;122738;-75
2023/07/06 01:50:52;;;;;;;;;;;21.00;55.10;;;21.23;37.46;98772.44;4976033;28;115429;-77
2023/07/06 01:53:38;;;;;;;;;;;21.00;55.20;;;21.20;37.31;98773.22;4980758;28;114952;-76
2023/07/06 01:56:12;;;;;;;;;;;21.00;55.30;;;21.19;37.53;98780.81;4984891;28;124549;-78
2023/07/06 01:58:50;;;;;;;;;;;21.00;55.40;;;21.15;37.65;98784.81;4975657;28;124040;-78
2023/07/06 02:01:23;;;;;;;;;;;20.90;55.40;;;21.13;37.72;98770.31;4968927;28;114729;-78
2023/07/06 02:03:51;;;;;;;;;;;20.90;55.50;;;21.11;37.70;98778.31;4994680;28;113717;-78
2023/07/06 02:06:17;;;;;;;;;;;20.90;55.50;;;21.08;37.78;98787.53;4988154;28;124305;-78
2023/07/06 02:08:46;;;;;;;;;;;20.90;56.20;;;21.07;37.83;98780.28;4976838;28;124288;-78
2023/07/06 02:11:18;;;;;;;;;;;20.80;55.60;;;21.09;37.75;98775.91;4990328;28;114572;-77
2023/07/06 02:13:47;;;;;;;;;;;20.80;55.70;;;21.08;37.43;98768.66;4988961;28;113617;-75
2023/07/06 02:16:15;;;;;;;;;;;20.80;55.80;;;21.06;37.77;98776.66;4987363;28;124265;-79
2023/07/06 02:18:44;;;;;;;;;;;20.80;55.90;;;21.00;38.20;98777.41;4989639;28;124687;-75
2023/07/06 02:21:13;;;;;;;;;;;20.80;56.00;;;20.92;37.83;98776.50;4986851;28;114563;-75
2023/07/06 02:23:40;;;;;;;;;;;20.70;56.00;;;20.86;38.02;98778.03;4984193;28;113897;-75
2023/07/06 02:26:08;;;;;;;;;;;20.70;56.40;;;20.82;38.41;98783.59;4989381;28;124209;-75
2023/07/06 02:28:35;;;;;;;;;;;20.60;56.30;;;20.79;38.81;98780.72;4989708;28;124212;-79
2023/07/06 02:31:05;;;;;;;;;;;20.60;56.70;;;20.76;38.67;98784.31;4988027;28;114371;-75
2023/07/06 02:33:34;;;;;;;;;;;20.60;56.70;;;20.70;38.73;98784.63;4988408;28;113799;-77
2023/07/06 02:36:00;;;;;;;;;;;20.50;56.70;;;20.67;38.87;98785.41;4982397;28;124871;-76
2023/07/06 02:38:29;;;;;;;;;;;20.50;56.80;;;20.68;38.79;98784.22;4988761;28;123486;-77
2023/07/06 02:40:58;;;;;;;;;;;20.50;57.00;;;20.66;38.95;98780.16;4988313;28;115440;-77
2023/07/06 02:43:27;;;;;;;;;;;20.40;57.20;;;20.65;39.29;98784.97;4982949;28;115246;-77
2023/07/06 02:45:53;;;;;;;;;;;20.40;57.30;;;20.66;39.29;98783.81;4980143;28;124687;-78
2023/07/06 02:48:21;;;;;;;;;;;20.40;57.50;;;20.69;39.24;98776.63;4992093;28;123984;-78
2023/07/06 02:50:49;;;;;;;;;;;20.50;57.80;;;20.71;39.47;98783.47;4983058;28;114071;-75
2023/07/06 02:53:16;;;;;;;;;;;20.40;58.00;;;20.72;39.47;98773.84;4985090;28;114372;-77
2023/07/06 02:55:46;;;;;;;;;;;20.40;58.20;;;20.73;39.42;98785.88;4983509;28;124394;-76
2023/07/06 02:58:13;;;;;;;;;;;20.50;58.50;;;20.74;39.74;98781.91;4982647;28;124057;-77
2023/07/06 03:00:39;;;;;;;;;;;20.40;58.60;;;20.74;40.01;98782.72;4989178;28;114470;-80
2023/07/06 03:03:07;;;;;;;;;;;20.40;58.80;;;20.74;40.26;98782.72;4987724;28;113719;-78
2023/07/06 03:05:36;;;;;;;;;;;20.40;59.10;;;20.76;40.32;98779.50;4972971;28;124242;-79
2023/07/06 03:08:03;;;;;;;;;;;20.40;59.30;;;20.74;40.65;98774.28;4989249;28;124083;-78
2023/07/06 03:10:30;;;;;;;;;;;20.40;59.50;;;20.74;40.47;98765.84;4980553;28;114130;-78
2023/07/06 03:12:57;;;;;;;;;;;20.40;59.70;;;20.73;40.75;98769.03;4988325;28;113898;-76
2023/07/06 03:15:23;;;;;;;;;;;20.40;59.90;;;20.71;41.02;98765.78;4971227;28;123361;-76
2023/07/06 03:17:51;;;;;;;;;;;20.40;60.00;;;20.70;40.60;98767.78;4989292;28;123973;-76
2023/07/06 03:20:19;;;;;;;;;;;20.40;60.20;;;20.71;41.03;98771.41;4985961;28;114409;-77
2023/07/06 03:22:51;;;;;;;;;;;20.40;60.50;;;20.69;41.21;98777.41;4989635;28;113783;-76
2023/07/06 03:25:35;;;;;;;;;;;20.40;60.70;;;20.67;41.34;98771.38;4983702;28;124297;-77
2023/07/06 03:28:01;;;;;;;;;;;20.40;60.90;;;20.65;41.22;98775.75;4986823;28;124098;-77
2023/07/06 03:30:31;;;;;;;;;;;20.40;61.10;;;20.60;41.46;98776.88;4982429;28;115505;-77
2023/07/06 03:33:02;;;;;;;;;;;20.30;61.20;;;20.57;41.78;98774.84;4990019;28;114364;-76
2023/07/06 03:35:32;;;;;;;;;;;20.30;61.40;;;20.53;41.62;98771.16;4976872;28;125991;-77
2023/07/06 03:37:59;;;;;;;;;;;20.30;61.70;;;20.50;42.06;98777.53;4990273;28;124703;-76
2023/07/06 03:40:30;;;;;;;;;;;20.30;61.90;;;20.49;42.00;98773.91;4990099;28;113572;-79
2023/07/06 03:42:59;;;;;;;;;;;20.20;62.00;;;20.49;41.98;98773.09;4986325;28;113788;-79
2023/07/06 03:45:30;;;;;;;;;;;20.20;62.20;;;20.47;41.98;98772.66;5004792;28;116947;-77
2023/07/06 03:47:56;;;;;;;;;;;20.20;62.30;;;20.45;42.02;98769.44;4994803;28;124052;-77
2023/07/06 03:50:22;;;;;;;;;;;20.20;62.40;;;20.43;42.25;98772.63;4973197;28;113272;-77
2023/07/06 03:52:49;;;;;;;;;;;20.20;62.60;;;20.43;41.93;98777.41;4989977;28;114179;-77
2023/07/06 03:55:24;;;;;;;;;;;20.20;62.70;;;20.43;42.29;98772.63;4982030;28;123806;-77
2023/07/06 03:57:50;;;;;;;;;;;20.20;62.90;;;20.43;42.10;98769.00;4977180;28;123011;-77
2023/07/06 04:00:24;;;;;;;;;;;20.20;63.00;;;20.42;42.60;98773.81;4987550;28;114311;-77
2023/07/06 04:02:53;;;;;;;;;;;20.20;63.20;;;20.41;42.37;98769.38;4988148;28;113346;-76
2023/07/06 04:05:22;;;;;;;;;;;20.10;63.30;;;20.39;42.71;98765.31;4994472;28;124277;-79
2023/07/06 04:07:52;;;;;;;;;;;20.10;63.40;;;20.46;42.54;98766.25;4987883;28;124129;-76
2023/07/06 04:10:22;;;;;;;;;;;20.10;63.70;;;20.62;42.54;98780.13;4986660;28;114319;-76
2023/07/06 04:12:49;;;;;;;;;;;20.20;64.00;;;20.73;42.03;98780.25;4988127;28;113611;-76
2023/07/06 04:15:17;;;;;;;;;;;20.20;64.10;;;20.77;42.33;98777.50;4986936;28;124076;-77
2023/07/06 04:17:50;;;;;;;;;;;20.20;64.10;;;20.73;42.33;98786.69;4984365;28;124084;-76
2023/07/06 04:20:19;;;;;;;;;;;20.20;64.00;;;20.65;42.15;98782.16;4963860;28;114342;-77
2023/07/06 04:22:47;;;;;;;;;;;20.20;64.00;;;20.52;42.64;98787.19;4975213;28;113451;-79
2023/07/06 04:25:18;;;;;;;;;;;20.20;63.80;;;20.43;42.44;98794.25;4968849;28;122440;-77
2023/07/06 04:27:45;;;;;;;;;;;20.20;63.80;;;20.39;42.70;98793.38;4986921;28;124874;-76
2023/07/06 04:30:15;;;;;;;;;;;20.20;64.00;;;20.33;42.80;98789.28;4990012;28;113448;-77
2023/07/06 04:32:48;;;;;;;;;;;20.10;64.20;;;20.24;43.13;98790.38;4971128;28;112655;-78
2023/07/06 04:35:17;;;;;;;;;;;20.10;64.30;;;20.21;43.07;98793.94;4972933;28;123994;-77
2023/07/06 04:37:46;;;;;;;;;;;20.00;64.40;;;20.15;43.33;98786.22;4988926;28;124572;-77
2023/07/06 04:40:13;;;;;;;;;;;20.00;65.00;;;20.12;43.49;98789.78;4985079;28;114694;-77
2023/07/06 04:42:42;;;;;;;;;;;20.00;65.00;;;20.08;43.63;98790.53;4989394;28;113999;-77
2023/07/06 04:45:09;;;;;;;;;;;19.90;65.10;;;20.11;43.60;98788.16;4986716;28;125094;-77
2023/07/06 04:47:41;;;;;;;;;;;20.00;65.40;;;20.15;43.63;98801.06;4987132;28;124035;-77
2023/07/06 04:50:09;;;;;;;;;;;19.90;65.50;;;20.17;43.75;98798.66;4984880;28;114683;-77
2023/07/06 04:52:41;;;;;;;;;;;19.90;65.80;;;20.24;43.77;98790.38;4982686;28;113900;-77
2023/07/06 04:55:08;;;;;;;;;;;19.90;66.00;;;20.29;43.39;98806.88;4971655;28;124215;-77
2023/07/06 04:57:38;;;;;;;;;;;19.90;65.90;;;20.31;43.23;98800.91;4973936;28;123742;-77
2023/07/06 05:00:16;;;;;;;;;;;19.90;65.70;;;20.32;43.60;98794.09;4983174;28;114559;-77
2023/07/06 05:02:42;;;;;;;;;;;20.00;65.70;;;20.38;43.07;98808.63;4988748;28;112794;-77
2023/07/06 05:05:17;;;;;;;;;;;20.00;65.60;;;20.41;42.83;98807.84;4976001;28;124277;-77
2023/07/06 05:07:43;;;;;;;;;;;20.00;65.40;;;20.45;42.84;98805.94;4974724;28;123596;-76
2023/07/06 05:10:09;;;;;;;;;;;20.10;65.40;;;20.47;42.94;98809.13;4977045;28;114988;-75
2023/07/06 05:12:36;;;;;;;;;;;20.10;65.40;;;20.50;42.57;98811.22;4985193;28;114574;-76
2023/07/06 05:15:03;;;;;;;;;;;20.10;65.30;;;20.55;42.59;98812.91;4986745;28;124182;-77
2023/07/06 05:17:34;;;;;;;;;;;20.20;65.30;;;20.60;42.74;98819.00;4978263;28;123504;-76
2023/07/06 05:20:00;;;;;;;;;;;20.20;65.20;;;20.64;42.71;98811.44;4983819;28;114140;-78
2023/07/06 05:22:29;;;;;;;;;;;20.20;65.30;;;20.69;42.80;98810.31;4969115;28;113692;-78
2023/07/06 05:24:56;;;;;;;;;;;20.30;66.10;;;20.71;42.76;98810.72;4988508;28;124140;-76
2023/07/06 05:27:24;;;;;;;;;;;20.30;65.90;;;20.73;42.74;98805.53;4979339;28;123636;-77
2023/07/06 05:29:51;;;;;;;;;;;20.30;65.60;;;20.76;42.41;98818.00;4981935;28;114722;-76
2023/07/06 05:32:19;;;;;;;;;;;20.40;65.60;;;20.81;42.35;98815.66;4969971;28;112896;-77
2023/07/06 05:34:45;;;;;;;;;;;20.40;65.50;;;20.87;42.08;98807.72;4989076;28;123938;-77
2023/07/06 05:37:12;;;;;;;;;;;20.40;65.30;;;20.93;42.17;98818.25;4985087;28;124219;-76
2023/07/06 05:39:40;;;;;;;;;;;20.50;65.20;;;21.00;42.20;98823.13;4989433;28;115134;-76
2023/07/06 05:42:09;;;;;;;;;;;22.00;66.70;;;21.07;41.94;98822.44;4987555;28;113777;-77
2023/07/06 05:44:35;;;;;;;;;;;20.60;65.40;;;21.12;42.23;98820.09;4989356;28;124158;-77
2023/07/06 05:47:01;;;;;;;;;;;20.60;65.50;;;21.16;42.21;98826.56;4974920;28;123756;-76
2023/07/06 05:49:28;;;;;;;;;;;20.70;65.60;;;21.15;42.11;98836.19;4986146;28;114548;-77
2023/07/06 05:51:55;;;;;;;;;;;20.70;65.60;;;21.15;42.52;98829.75;4985240;28;113629;-76
2023/07/06 05:54:21;;;;;;;;;;;20.80;65.70;;;21.19;42.34;98836.22;4987655;28;124098;-76
2023/07/06 05:56:48;;;;;;;;;;;20.80;65.70;;;21.28;42.14;98844.34;4987689;28;123602;-77
2023/07/06 05:59:15;;;;;;;;;;;20.80;65.80;;;21.37;42.01;98833.63;4976457;28;115789;-76
2023/07/06 06:01:41;;;;;;;;;;;20.90;65.80;;;21.40;41.94;98844.13;4988144;28;114804;-76
2023/07/06 06:04:10;;;;;;;;;;;20.90;66.00;;;21.39;41.92;98840.50;4990776;28;124123;-76
2023/07/06 06:06:51;;;;;;;;;;;20.80;65.90;;;21.40;42.09;98849.75;4984377;28;124346;-75
2023/07/06 06:09:17;;;;;;;;;;;20.90;66.10;;;21.44;42.19;98850.63;4977932;28;114561;-78
2023/07/06 06:11:44;;;;;;;;;;;20.90;66.30;;;21.49;42.13;98847.44;4996343;28;113533;-76
2023/07/06 06:14:10;;;;;;;;;;;21.00;66.30;;;21.54;42.03;98849.09;4989070;28;124227;-76
2023/07/06 06:16:37;;;;;;;;;;;21.00;66.20;;;21.56;42.15;98847.53;4989328;28;123156;-75
2023/07/06 06:19:03;;;;;;;;;;;21.10;66.10;;;21.62;41.68;98860.03;4988157;28;113098;-75
2023/07/06 06:21:30;;;;;;;;;;;21.10;66.00;;;21.72;41.98;98849.31;4977345;28;112904;-76
2023/07/06 06:23:57;;;;;;;;;;;21.20;66.00;;;21.76;41.72;98845.34;4983168;28;123783;-79
2023/07/06 06:26:24;;;;;;;;;;;21.20;65.70;;;21.77;41.36;98852.56;4987233;28;124021;-78
2023/07/06 06:28:51;;;;;;;;;;;21.30;65.50;;;21.82;41.54;98855.03;4986599;28;114802;-76
2023/07/06 06:31:18;;;;;;;;;;;21.30;65.40;;;21.87;41.42;98848.25;4975784;28;114130;-77
2023/07/06 06:33:46;;;;;;;;;;;21.30;65.20;;;21.93;40.92;98852.31;4986876;28;124924;-77
2023/07/06 06:36:13;;;;;;;;;;;21.40;65.20;;;21.98;41.23;98854.78;4989878;28;124000;-77
2023/07/06 06:38:42;;;;;;;;;;;21.40;65.10;;;22.08;41.09;98844.00;4957105;28;113480;-81
2023/07/06 06:41:10;;;;;;;;;;;21.50;65.10;;;22.15;40.57;98842.06;4986822;28;112945;-76
2023/07/06 06:43:40;;;;;;;;;;;21.60;64.40;;;22.17;40.34;98845.31;4985335;28;124441;-79
2023/07/06 06:46:12;;;;;;;;;;;21.60;64.20;;;22.21;39.96;98848.16;4986206;28;124541;-77
2023/07/06 06:48:41;;;;;;;;;;;21.60;63.80;;;22.18;39.43;98848.91;4977090;28;114226;-80
2023/07/06 06:51:10;;;;;;;;;;;21.60;63.10;;;22.20;39.45;98840.94;4985982;28;115349;-78
2023/07/06 06:53:40;;;;;;;;;;;21.60;62.80;;;22.24;39.12;98853.00;4987496;28;124479;-76
2023/07/06 06:56:09;;;;;;;;;;;21.70;62.40;;;22.28;39.15;98851.06;4976287;28;123962;-78
2023/07/06 06:58:36;;;;;;;;;;;21.70;62.10;;;22.32;38.77;98849.06;4986727;28;114153;-79
2023/07/06 07:01:08;;;;;;;;;;;21.80;61.70;;;22.38;38.68;98839.06;4985749;28;113443;-77
2023/07/06 07:03:34;;;;;;;;;;;21.90;61.80;;;22.44;38.33;98850.78;4979716;28;124160;-75
2023/07/06 07:06:11;;;;;;;;;;;21.90;61.50;;;22.52;38.50;98843.19;4983635;28;123956;-79
2023/07/06 07:08:44;;;;;;;;;;;21.90;61.30;;;22.60;38.44;98844.84;4984570;28;114537;-77
2023/07/06 07:11:11;;;;;;;;;;;22.00;61.40;;;22.67;37.89;98844.88;4984745;28;113934;-78
2023/07/06 07:13:38;;;;;;;;;;;22.10;61.00;;;22.74;38.01;98844.13;4981291;28;124352;-79
2023/07/06 07:16:06;;;;;;;;;;;22.10;60.80;;;22.81;37.87;98842.16;4990643;28;123763;-76
2023/07/06 07:18:33;;;;;;;;;;;22.20;60.70;;;22.87;37.64;98837.75;4986074;28;114497;-77
2023/07/06 07:21:03;;;;;;;;;;;22.30;60.40;;;22.94;37.52;98845.44;4980886;28;113301;-78
2023/07/06 07:23:42;;;;;;;;;;;22.30;60.00;;;22.95;37.05;98847.06;4978795;28;124530;-76
2023/07/06 07:26:10;;;;;;;;;;;22.40;59.70;;;23.01;37.32;98844.72;4980140;28;123127;-77
2023/07/06 07:28:37;;;;;;;;;;;22.40;59.60;;;23.04;36.83;98843.91;4987237;28;114561;-77
2023/07/06 07:31:07;;;;;;;;;;;22.50;59.20;;;23.10;36.90;98839.50;4986898;28;113521;-78
2023/07/06 07:33:34;;;;;;;;;;;22.50;58.90;;;23.16;36.61;98843.56;4981269;28;123575;-77
2023/07/06 07:36:02;;;;;;;;;;;22.60;58.60;;;23.23;36.24;98843.59;4976870;28;124558;-78
2023/07/06 07:38:28;;;;;;;;;;;22.60;58.40;;;23.31;36.32;98839.59;4983173;28;115581;-78
2023/07/06 07:40:57;;;;;;;;;;;22.70;58.20;;;23.36;35.95;98841.22;4986443;28;114528;-79
2023/07/06 07:43:27;;;;;;;;;;;22.80;57.90;;;23.44;35.61;98836.41;4972388;28;123310;-78
2023/07/06 07:46:06;;;;;;;;;;;23.40;57.90;;;23.48;35.52;98831.59;4985818;28;123835;-78
2023/07/06 07:48:37;;;;;;;;;;;22.90;57.10;;;23.55;35.33;98842.91;4986290;28;114179;-80
2023/07/06 07:51:05;;;;;;;;;;;23.00;57.10;;;23.60;34.48;98834.84;4969930;28;111820;-79
2023/07/06 07:53:34;;;;;;;;;;;23.00;55.90;;;23.66;34.49;98832.44;4986329;28;123562;-79
2023/07/06 07:56:04;;;;;;;;;;;23.10;55.80;;;23.72;34.32;98836.53;5000342;28;124256;-78
2023/07/06 07:58:38;;;;;;;;;;;23.20;55.70;;;23.76;34.31;98826.03;4969970;28;112493;-80
2023/07/06 08:01:06;;;;;;;;;;;23.20;55.50;;;23.81;34.09;98833.31;4991592;28;113796;-78
2023/07/06 08:03:35;;;;;;;;;;;23.30;55.20;;;23.81;33.73;98825.66;4965079;28;123124;-79
2023/07/06 08:06:07;;;;;;;;;;;23.30;54.40;;;23.82;33.54;98829.28;4987985;28;122836;-79
2023/07/06 08:08:36;;;;;;;;;;;23.30;54.20;;;23.85;33.89;98827.66;4987697;28;114719;-80
2023/07/06 08:11:08;;;;;;;;;;;23.30;54.30;;;23.90;33.71;98830.09;4986021;28;113904;-79
2023/07/06 08:13:34;;;;;;;;;;;23.40;54.40;;;23.94;33.42;98826.06;4983557;28;124109;-79
2023/07/06 08:16:01;;;;;;;;;;;23.40;54.10;;;23.95;33.21;98819.22;4987590;28;124747;-79
2023/07/06 08:18:28;;;;;;;;;;;23.50;53.80;;;23.97;33.42;98824.47;4980871;28;114005;-77
2023/07/06 08:20:55;;;;;;;;;;;23.50;53.70;;;23.96;33.30;98820.81;4982654;28;113966;-78
2023/07/06 08:23:25;;;;;;;;;;;23.50;53.70;;;23.99;33.51;98827.66;4982951;28;123873;-78
2023/07/06 08:25:52;;;;;;;;;;;23.60;53.80;;;24.04;33.58;98827.28;4985917;28;123968;-78
2023/07/06 08:28:28;;;;;;;;;;;23.60;53.60;;;24.09;33.28;98826.88;4966937;28;114511;-79
2023/07/06 08:30:55;;;;;;;;;;;23.60;53.70;;;24.11;33.32;98827.28;4992929;28;114649;-79
2023/07/06 08:33:25;;;;;;;;;;;23.60;53.30;;;24.12;33.00;98819.63;4985196;28;124256;-79
2023/07/06 08:35:53;;;;;;;;;;;23.70;53.00;;;24.13;33.08;98822.06;4962661;28;123032;-78
2023/07/06 08:38:19;;;;;;;;;;;23.70;53.10;;;24.18;33.09;98823.66;4986795;28;114311;-80
2023/07/06 08:40:52;;;;;;;;;;;23.70;53.30;;;24.24;33.08;98828.50;4971893;28;112994;-79
2023/07/06 08:43:22;;;;;;;;;;;23.80;53.40;;;24.32;32.76;98829.31;4979493;28;124783;-78
2023/07/06 08:46:00;;;;;;;;;;;23.80;52.90;;;24.38;32.80;98816.38;4983109;28;125069;-78
2023/07/06 08:48:28;;;;;;;;;;;23.80;53.00;;;24.44;32.68;98814.78;4983341;28;113728;-79
2023/07/06 08:50:58;;;;;;;;;;;23.90;53.00;;;24.50;32.75;98811.53;4980699;28;113875;-79
2023/07/06 08:53:34;;;;;;;;;;;23.90;52.70;;;24.56;32.42;98816.41;4979642;28;124195;-80
2023/07/06 08:56:03;;;;;;;;;;;24.00;52.60;;;24.61;32.33;98820.81;4978670;28;123415;-79
2023/07/06 08:58:34;;;;;;;;;;;24.00;52.40;;;24.66;32.45;98809.91;4980435;28;113486;-78
2023/07/06 09:01:06;;;;;;;;;;;24.10;52.60;;;24.74;32.54;98816.34;4961158;28;112756;-79
2023/07/06 09:03:37;;;;;;;;;;;24.20;52.70;;;24.81;32.20;98815.53;4982046;28;124200;-78
2023/07/06 09:06:03;;;;;;;;;;;24.20;52.10;;;24.79;31.93;98813.09;4991206;28;123665;-79
2023/07/06 09:08:30;;;;;;;;;;;24.30;51.50;;;24.80;31.93;98809.06;4989798;28;113089;-77
2023/07/06 09:10:58;;;;;;;;;;;24.30;51.70;;;24.84;31.89;98809.84;4987538;28;113951;-77
2023/07/06 09:13:27;;;;;;;;;;;24.30;51.30;;;24.89;31.51;98805.81;4980668;28;124248;-78
2023/07/06 09:16:00;;;;;;;;;;;24.30;51.30;;;24.92;31.84;98807.81;4984221;28;124099;-78
2023/07/06 09:18:29;;;;;;;;;;;24.40;51.30;;;24.97;31.10;98809.44;4988139;28;117148;-78
2023/07/06 09:21:11;;;;;;;;;;;24.50;50.70;;;24.98;31.20;98803.34;4984110;28;114506;-78
2023/07/06 09:23:38;;;;;;;;;;;24.50;50.40;;;25.00;30.95;98803.75;4982699;28;124337;-79
2023/07/06 09:26:07;;;;;;;;;;;24.60;50.30;;;25.03;31.12;98804.94;4981795;28;123233;-78
2023/07/06 09:28:34;;;;;;;;;;;24.60;50.20;;;25.09;30.80;98798.47;4986982;28;114654;-78
2023/07/06 09:31:18;;;;;;;;;;;24.70;50.80;;;25.14;30.32;98806.50;4987237;28;113831;-78
2023/07/06 09:33:48;;;;;;;;;;;24.70;49.70;;;25.21;30.62;98793.59;4988613;28;124860;-79
2023/07/06 09:36:25;;;;;;;;;;;24.70;49.60;;;25.26;30.68;98791.16;4982826;28;123151;-78
2023/07/06 09:38:52;;;;;;;;;;;24.80;49.60;;;25.29;30.49;98798.00;4987859;28;114501;-77
2023/07/06 09:41:23;;;;;;;;;;;24.80;49.00;;;25.21;30.08;98791.56;4986629;28;114018;-78
2023/07/06 09:43:57;;;;;;;;;;;24.80;48.60;;;25.18;29.97;98794.44;4986352;28;124612;-78
2023/07/06 09:46:36;;;;;;;;;;;24.80;48.70;;;25.20;30.22;98798.47;4972686;28;124119;-78
2023/07/06 09:49:11;;;;;;;;;;;24.80;48.80;;;25.25;30.12;98800.81;4979468;28;115119;-77
2023/07/06 09:51:51;;;;;;;;;;;24.80;48.20;;;25.21;29.93;98797.22;4999479;28;113265;-77
2023/07/06 09:54:22;;;;;;;;;;;24.80;48.00;;;25.20;30.01;98811.75;4993632;28;124344;-77
2023/07/06 09:56:51;;;;;;;;;;;24.90;48.20;;;25.25;29.80;98797.19;4984188;28;123656;-77
2023/07/06 09:59:18;;;;;;;;;;;24.90;48.40;;;25.26;29.82;98790.34;4985963;28;114542;-77
2023/07/06 10:01:58;;;;;;;;;;;24.90;48.30;;;25.28;30.13;98796.38;4988855;28;114406;-77
2023/07/06 10:04:34;;;;;;;;;;;24.90;48.20;;;25.28;29.87;98797.19;4974839;28;123926;-76
2023/07/06 10:07:27;;;;;;;;;;;24.90;48.20;;;25.32;30.13;98800.00;4983044;28;123987;-78
2023/07/06 10:10:02;;;;;;;;;;;24.90;48.40;;;25.37;29.88;98801.59;4983804;28;115428;-77
2023/07/06 10:12:44;;;;;;;;;;;24.90;48.20;;;25.40;29.54;98801.56;4983687;28;115159;-77
2023/07/06 10:15:19;;;;;;;;;;;25.00;47.60;;;25.41;29.71;98800.34;4987627;28;124428;-77
2023/07/06 10:17:50;;;;;;;;;;;25.00;47.50;;;25.43;29.37;98795.09;4990546;28;124077;-77
2023/07/06 10:20:43;;;;;;;;;;;25.10;46.60;;;25.44;29.43;98802.38;4984437;28;114386;-77
2023/07/06 10:23:29;;;;;;;;;;;25.10;47.10;;;25.47;29.63;98798.72;4987240;28;115184;-77
2023/07/06 10:26:02;;;;;;;;;;;25.10;47.00;;;25.55;29.14;98793.81;4983892;28;124716;-77
2023/07/06 10:28:38;;;;;;;;;;;25.10;47.20;;;25.60;28.97;98798.22;4977877;28;124020;-77
2023/07/06 10:31:08;;;;;;;;;;;25.10;46.70;;;25.63;28.47;98803.88;4984004;28;114482;-77
2023/07/06 10:33:46;;;;;;;;;;;25.10;46.30;;;25.68;28.75;98796.94;4986624;28;116154;-77
2023/07/06 10:36:13;;;;;;;;;;;25.20;46.20;;;25.74;28.72;98798.16;4985258;28;124783;-77
2023/07/06 10:38:39;;;;;;;;;;;25.90;46.50;;;25.79;28.70;98794.84;4969041;28;123212;-77
2023/07/06 10:41:12;;;;;;;;;;;25.30;46.00;;;25.81;28.77;98786.75;4986656;28;114762;-77
2023/07/06 10:43:43;;;;;;;;;;;25.30;46.00;;;25.86;28.27;98791.22;4986077;28;113756;-77
2023/07/06 10:46:33;;;;;;;;;;;25.40;46.00;;;25.92;28.68;98786.69;4973584;28;124437;-77
2023/07/06 10:49:22;;;;;;;;;;;25.50;46.10;;;25.99;28.64;98792.31;4998428;28;124409;-77
2023/07/06 10:51:55;;;;;;;;;;;25.50;45.70;;;26.07;28.18;98788.19;5003378;28;113701;-77
2023/07/06 10:54:24;;;;;;;;;;;25.60;45.40;;;26.06;28.25;98791.44;4986167;28;113648;-77
2023/07/06 10:57:02;;;;;;;;;;;25.60;45.20;;;26.04;28.12;98806.03;4986365;28;124641;-77
2023/07/06 10:59:40;;;;;;;;;;;25.60;45.60;;;26.06;28.36;98808.44;4985028;28;124088;-77
2023/07/06 11:02:25;;;;;;;;;;;25.70;45.70;;;26.00;28.08;98805.25;4969351;28;114301;-77
2023/07/06 11:05:10;;;;;;;;;;;25.60;45.30;;;25.94;27.93;98807.72;4971129;28;113971;-77
2023/07/06 11:07:41;;;;;;;;;;;25.60;45.20;;;25.91;28.54;98802.09;4985639;28;124191;-77
2023/07/06 11:10:10;;;;;;;;;;;25.60;45.20;;;25.86;28.16;98794.84;4975236;28;124194;-77
2023/07/06 11:12:54;;;;;;;;;;;25.60;45.00;;;25.83;28.16;98801.31;4989040;28;114024;-77
2023/07/06 11:15:30;;;;;;;;;;;25.50;44.80;;;25.88;28.79;98803.72;4967369;28;113933;-77
2023/07/06 11:17:58;;;;;;;;;;;25.50;45.50;;;25.98;28.41;98796.38;4967210;28;124177;-77
2023/07/06 11:20:28;;;;;;;;;;;25.60;45.90;;;26.06;28.53;98792.28;4982961;28;124538;-77
2023/07/06 11:23:06;;;;;;;;;;;25.60;45.30;;;26.15;27.98;98801.06;4982698;28;114476;-77
2023/07/06 11:25:33;;;;;;;;;;;25.70;44.90;;;26.26;28.18;98786.81;4977254;28;113423;-78